Time;durP1;ratioP1;P1;durP2;ratioP2;P2;SDS_P1;SDS_P2;PMS_P1;PMS_P2;Temp;Humidity;BMP_temperature;BMP_pressure;BME280_temperature;BME280_humidity;BME280_pressure;Samples;Min_cycle;Max_cycle;Signal;HPM_P1;HPM_P2
2023/05/18 00:01:56;;;;;;;27.90;9.17;;;;;;;12.20;100.00;96428.81;5002667;28;20862;-69
2023/05/18 00:05:19;;;;;;;15.07;9.70;;;;;;;11.92;100.00;96427.09;4988931;28;20189;-67
2023/05/18 00:08:40;;;;;;;13.27;9.20;;;;;;;11.99;100.00;96432.75;4989722;28;20321;-69
2023/05/18 00:12:01;;;;;;;14.03;9.47;;;;;;;12.06;100.00;96436.63;4989828;28;20255;-66
2023/05/18 00:15:21;;;;;;;14.60;8.80;;;;;;;12.23;100.00;96439.03;4988950;28;20200;-66
2023/05/18 00:18:43;;;;;;;12.50;8.23;;;;;;;12.49;100.00;96445.22;4988116;28;20617;-66
2023/05/18 00:22:06;;;;;;;14.80;8.10;;;;;;;12.67;100.00;96450.09;5003893;28;20848;-71
2023/05/18 00:25:27;;;;;;;13.47;8.17;;;;;;;12.77;98.78;96450.31;4990312;28;20199;-68
2023/05/18 00:28:47;;;;;;;10.57;7.57;;;;;;;12.79;98.22;96431.09;4989315;28;20220;-66
2023/05/18 00:32:08;;;;;;;14.13;7.87;;;;;;;12.82;97.48;96438.69;4987828;28;20194;-65
2023/05/18 00:35:30;;;;;;;10.13;7.30;;;;;;;12.87;97.14;96430.59;5002359;28;20195;-68
2023/05/18 00:38:51;;;;;;;12.17;8.03;;;;;;;13.01;96.63;96433.97;4987472;28;20199;-70
2023/05/18 00:42:12;;;;;;;13.50;8.20;;;;;;;12.93;96.92;96430.22;4973197;28;20660;-71
2023/05/18 00:45:33;;;;;;;13.33;8.37;;;;;;;13.00;95.90;96429.69;5002467;28;20234;-70
2023/05/18 00:48:53;;;;;;;10.77;7.13;;;;;;;13.10;94.75;96435.19;4987287;28;20225;-67
2023/05/18 00:52:14;;;;;;;9.87;7.40;;;;;;;12.86;94.80;96441.91;5002932;28;20191;-66
2023/05/18 00:55:35;;;;;;;11.57;7.90;;;;;;;12.91;94.72;96440.72;5003372;28;20250;-72
2023/05/18 00:58:56;;;;;;;10.90;7.63;;;;;;;12.58;95.17;96436.81;4988597;28;20201;-74
2023/05/18 01:02:16;;;;;;;11.90;8.20;;;;;;;12.61;96.79;96447.84;4987825;28;20211;-70
2023/05/18 01:05:37;;;;;;;13.07;8.03;;;;;;;12.63;97.46;96448.56;4987641;28;20203;-71
2023/05/18 01:08:58;;;;;;;13.03;7.53;;;;;;;12.63;97.73;96445.16;5003811;28;20479;-66
2023/05/18 01:11:51;;;;;;;13.73;8.27;;;;;;;12.71;96.95;96454.16;4988741;28;20196;-75
2023/05/18 01:15:10;;;;;;;19.87;9.03;;;;;;;12.66;98.59;96455.34;4985906;28;20335;-67
2023/05/18 01:18:46;;;;;;;20.33;9.30;;;;;;;12.71;98.82;96461.94;4987624;28;20192;-66
2023/05/18 01:22:20;;;;;;;67.10;12.10;;;;;;;12.75;98.29;96462.56;4988552;28;20193;-70
2023/05/18 01:25:31;;;;;;;25.30;9.60;;;;;;;12.84;98.87;96468.00;4986413;28;20196;-67
2023/05/18 01:28:52;;;;;;;24.93;9.53;;;;;;;12.23;100.00;96470.19;4987398;28;20749;-69
2023/05/18 01:32:14;;;;;;;43.87;11.13;;;;;;;12.15;100.00;96462.88;4994620;28;20617;-78
2023/05/18 01:35:36;;;;;;;21.83;9.87;;;;;;;12.21;100.00;96461.66;5007272;28;20195;-73
2023/05/18 01:39:00;;;;;;;39.83;11.37;;;;;;;12.26;100.00;96462.22;5007829;28;20603;-77
2023/05/18 01:42:21;;;;;;;28.00;11.10;;;;;;;12.31;99.74;96467.09;5007814;28;20187;-75
2023/05/18 01:45:41;;;;;;;41.93;12.30;;;;;;;12.18;100.00;96464.41;5004242;28;20195;-68
2023/05/18 01:49:02;;;;;;;38.67;10.00;;;;;;;12.13;100.00;96476.88;5006441;28;21165;-67
2023/05/18 01:52:23;;;;;;;41.10;10.07;;;;;;;12.03;100.00;96484.38;5007679;28;20195;-75
2023/05/18 01:55:45;;;;;;;75.37;11.57;;;;;;;12.05;100.00;96489.47;5006037;28;20575;-71
2023/05/18 01:59:05;;;;;;;115.00;12.10;;;;;;;11.91;100.00;96481.69;5006607;28;20188;-78
2023/05/18 02:02:26;;;;;;;44.67;10.00;;;;;;;11.94;100.00;96477.16;4989753;28;20286;-75
2023/05/18 02:05:47;;;;;;;21.43;10.23;;;;;;;12.11;100.00;96473.53;5005259;28;20600;-75
2023/05/18 02:09:08;;;;;;;53.80;10.70;;;;;;;12.10;100.00;96477.88;5005558;28;20237;-66
2023/05/18 02:12:29;;;;;;;27.83;9.40;;;;;;;12.13;100.00;96482.91;5005428;28;20200;-69
2023/05/18 02:15:50;;;;;;;24.93;9.40;;;;;;;12.25;100.00;96492.53;4987460;28;20674;-70
2023/05/18 02:19:11;;;;;;;63.37;10.20;;;;;;;12.07;100.00;96495.41;5004673;28;20191;-73
2023/05/18 02:22:32;;;;;;;30.63;9.07;;;;;;;11.97;100.00;96491.69;5007962;28;20187;-71
2023/05/18 02:25:56;;;;;;;42.83;8.90;;;;;;;11.90;100.00;96487.78;5011263;28;20206;-66
2023/05/18 02:29:16;;;;;;;16.63;8.30;;;;;;;12.07;100.00;96487.63;5010092;28;20219;-66
2023/05/18 02:32:37;;;;;;;55.83;9.20;;;;;;;11.86;100.00;96488.91;5007530;28;20667;-66
2023/05/18 02:35:58;;;;;;;57.03;8.90;;;;;;;11.70;100.00;96495.94;4992596;28;20197;-65
2023/05/18 02:39:20;;;;;;;41.00;8.17;;;;;;;11.78;100.00;96504.09;5010044;28;20183;-66
2023/05/18 02:42:41;;;;;;;37.80;9.20;;;;;;;11.75;100.00;96501.66;5010851;28;20560;-67
2023/05/18 02:46:03;;;;;;;21.43;8.03;;;;;;;12.13;100.00;96510.59;4991249;28;20691;-67
2023/05/18 02:49:24;;;;;;;32.43;8.00;;;;;;;12.25;100.00;96505.50;5009667;28;20220;-67
2023/05/18 02:52:48;;;;;;;29.57;7.77;;;;;;;12.13;100.00;96508.84;5009191;28;20249;-67
2023/05/18 02:56:08;;;;;;;36.53;7.93;;;;;;;12.21;100.00;96508.38;5010636;28;20188;-67
2023/05/18 02:59:42;;;;;;;18.33;6.37;;;;;;;12.18;100.00;96513.75;5008552;28;20190;-70
2023/05/18 03:03:03;;;;;;;22.73;7.20;;;;;;;12.10;100.00;96510.78;5008992;28;20188;-66
2023/05/18 03:06:25;;;;;;;29.17;8.77;;;;;;;11.94;100.00;96525.59;5008091;28;20569;-67
2023/05/18 03:09:47;;;;;;;55.53;7.60;;;;;;;11.89;100.00;96540.63;5008510;28;20302;-66
2023/05/18 03:13:10;;;;;;;34.93;6.83;;;;;;;11.87;100.00;96555.44;5008641;28;20328;-65
2023/05/18 03:16:31;;;;;;;48.00;7.63;;;;;;;11.64;100.00;96555.91;4994314;28;20200;-65
2023/05/18 03:19:54;;;;;;;23.63;6.53;;;;;;;11.76;100.00;96563.84;4988216;28;20702;-66
2023/05/18 03:23:15;;;;;;;41.50;7.87;;;;;;;11.80;100.00;96561.91;4988632;28;20184;-65
2023/05/18 03:26:53;;;;;;;19.80;7.60;;;;;;;11.85;100.00;96557.28;4990040;28;20211;-68
2023/05/18 03:30:13;;;;;;;29.57;7.77;;;;;;;11.74;100.00;96564.84;4987895;28;20224;-73
2023/05/18 03:33:34;;;;;;;25.10;7.43;;;;;;;11.81;100.00;96561.00;4986994;28;20212;-66
2023/05/18 03:36:56;;;;;;;25.80;8.17;;;;;;;12.00;100.00;96556.38;5000206;28;20196;-67
2023/05/18 03:40:18;;;;;;;24.67;7.57;;;;;;;12.19;100.00;96556.97;5000055;28;20188;-70
2023/05/18 03:43:38;;;;;;;41.80;8.93;;;;;;;12.30;100.00;96564.97;5000104;28;20702;-69
2023/05/18 03:47:01;;;;;;;30.00;8.17;;;;;;;12.12;100.00;96569.47;4998862;28;20188;-67
2023/05/18 03:50:21;;;;;;;40.40;8.67;;;;;;;12.33;100.00;96566.50;5005348;28;20235;-68
2023/05/18 03:53:42;;;;;;;13.53;7.53;;;;;;;12.47;100.00;96563.94;5003443;28;20200;-70
2023/05/18 03:57:03;;;;;;;21.43;8.10;;;;;;;12.68;100.00;96573.84;4979435;28;20193;-73
2023/05/18 04:00:24;;;;;;;16.17;8.50;;;;;;;12.68;100.00;96578.19;5022949;28;20849;-66
2023/05/18 04:03:44;;;;;;;22.03;9.13;;;;;;;12.85;100.00;96584.03;5020267;28;20270;-67
2023/05/18 04:07:06;;;;;;;17.33;7.97;;;;;;;12.60;100.00;96593.41;5006606;28;20192;-70
2023/05/18 04:10:27;;;;;;;13.40;7.50;;;;;;;12.76;100.00;96596.75;5023687;28;20223;-66
2023/05/18 04:13:49;;;;;;;20.97;7.70;;;;;;;12.74;100.00;96596.84;5021539;28;20193;-68
2023/05/18 04:17:10;;;;;;;9.33;7.03;;;;;;;12.95;100.00;96611.13;5007754;28;20199;-67
2023/05/18 04:20:31;;;;;;;20.27;9.00;;;;;;;12.99;100.00;96602.19;4997725;28;21017;-75
2023/05/18 04:23:52;;;;;;;12.40;7.50;;;;;;;13.14;100.00;96594.41;4999500;28;20304;-68
2023/05/18 04:27:13;;;;;;;11.23;7.60;;;;;;;13.21;100.00;96600.91;5001976;28;20672;-72
2023/05/18 04:30:34;;;;;;;19.47;8.93;;;;;;;13.51;100.00;96602.38;5005778;28;20710;-75
2023/05/18 04:33:56;;;;;;;35.13;8.77;;;;;;;13.25;99.66;96608.38;5007120;28;20228;-70
2023/05/18 04:37:16;;;;;;;22.50;8.47;;;;;;;13.22;99.89;96618.16;5022539;28;20197;-76
2023/05/18 04:40:41;;;;;;;23.00;9.57;;;;;;;13.17;100.00;96605.44;5006838;28;20192;-73
2023/05/18 04:44:03;;;;;;;30.23;8.33;;;;;;;12.76;100.00;96618.38;5006457;28;20549;-68
2023/05/18 04:47:24;;;;;;;23.40;8.27;;;;;;;12.73;100.00;96609.94;5005854;28;20580;-73
2023/05/18 04:49:51;;;;;;;13.70;8.43;;;;;;;12.86;100.00;96619.47;5006634;28;20216;-75
2023/05/18 04:52:19;;;;;;;14.57;7.97;;;;;;;12.98;100.00;96615.31;5007270;28;20195;-73
2023/05/18 04:54:46;;;;;;;16.77;8.73;;;;;;;12.81;100.00;96624.13;5005602;28;20195;-67
2023/05/18 04:57:14;;;;;;;14.67;8.57;;;;;;;12.90;100.00;96620.13;5007156;28;20188;-66
2023/05/18 04:59:46;;;;;;;10.43;7.40;;;;;;;12.89;100.00;96631.44;4972850;28;20268;-65
2023/05/18 05:02:13;;;;;;;9.10;6.70;;;;;;;13.01;100.00;96620.28;5006931;28;20196;-70
2023/05/18 05:04:41;;;;;;;8.57;6.17;;;;;;;13.17;100.00;96609.81;4989608;28;20259;-67
2023/05/18 05:07:08;;;;;;;7.57;5.90;;;;;;;13.44;99.99;96634.06;5007398;28;20196;-71
2023/05/18 05:09:35;;;;;;;7.73;5.63;;;;;;;13.63;99.15;96629.38;5008095;28;20249;-68
2023/05/18 05:12:02;;;;;;;7.10;5.37;;;;;;;13.66;98.77;96631.78;4989382;28;20200;-67
2023/05/18 05:14:30;;;;;;;5.63;4.63;;;;;;;13.80;98.38;96639.53;5006679;28;20197;-71
2023/05/18 05:16:57;;;;;;;6.93;5.07;;;;;;;14.01;97.17;96640.75;5004995;28;20202;-69
2023/05/18 05:19:24;;;;;;;5.63;4.80;;;;;;;14.26;94.87;96643.38;5006538;28;20619;-70
2023/05/18 05:21:51;;;;;;;4.83;4.33;;;;;;;14.48;94.28;96638.44;5005597;28;20181;-69
2023/05/18 05:24:18;;;;;;;5.50;4.50;;;;;;;14.48;93.37;96635.00;5006470;28;20287;-78
2023/05/18 05:26:45;;;;;;;5.43;4.87;;;;;;;14.48;93.37;96641.03;5006603;28;20197;-73
2023/05/18 05:29:13;;;;;;;6.67;5.37;;;;;;;14.52;93.13;96646.88;5005374;28;20221;-76
2023/05/18 05:31:40;;;;;;;10.23;7.40;;;;;;;14.56;93.50;96649.19;5006826;28;20187;-75
2023/05/18 05:34:07;;;;;;;7.33;5.63;;;;;;;14.66;92.77;96644.16;5005308;28;20632;-69
2023/05/18 05:36:34;;;;;;;6.60;5.73;;;;;;;14.85;92.24;96646.34;5006472;28;20227;-72
2023/05/18 05:39:01;;;;;;;7.20;5.60;;;;;;;14.83;92.18;96650.84;5005008;28;20232;-72
2023/05/18 05:41:28;;;;;;;7.70;5.83;;;;;;;14.71;91.37;96646.47;4990026;28;20194;-75
2023/05/18 05:43:58;;;;;;;6.77;5.17;;;;;;;14.85;91.47;96662.00;5006067;28;20196;-68
2023/05/18 05:46:25;;;;;;;7.17;5.27;;;;;;;14.93;90.89;96657.06;5006720;28;20197;-72
2023/05/18 05:48:54;;;;;;;7.00;5.43;;;;;;;14.98;91.64;96674.06;5007847;28;21323;-73
2023/05/18 05:51:21;;;;;;;7.93;6.47;;;;;;;15.00;92.08;96673.97;4988186;28;20198;-74
2023/05/18 05:53:49;;;;;;;6.63;5.70;;;;;;;15.01;91.76;96679.09;5006142;28;20205;-73
2023/05/18 05:56:16;;;;;;;8.67;7.20;;;;;;;15.10;91.43;96675.00;4987686;28;20217;-78
2023/05/18 05:58:45;;;;;;;9.17;7.30;;;;;;;15.13;91.63;96669.56;5006323;28;20187;-69
2023/05/18 06:01:12;;;;;;;7.60;6.77;;;;;;;15.14;91.09;96672.09;5005567;28;20191;-74
2023/05/18 06:03:40;;;;;;;9.47;7.17;;;;;;;15.19;90.14;96675.19;5005244;28;20250;-74
2023/05/18 06:06:08;;;;;;;11.50;7.80;;;;;;;15.18;89.48;96668.31;5006068;28;20219;-74
2023/05/18 06:08:35;;;;;;;13.60;8.80;;;;;;;15.22;90.68;96677.59;5004305;28;20318;-76
2023/05/18 06:11:02;;;;;;;9.37;8.00;;;;;;;15.27;90.83;96678.09;4989727;28;20202;-68
2023/05/18 06:13:30;;;;;;;11.27;9.07;;;;;;;15.44;90.81;96674.34;4988131;28;20199;-76
2023/05/18 06:15:58;;;;;;;12.77;9.73;;;;;;;15.40;90.84;96678.06;5006074;28;20202;-77
2023/05/18 06:18:25;;;;;;;14.33;10.20;;;;;;;15.53;91.72;96675.47;5004992;28;20214;-76
2023/05/18 06:20:56;;;;;;;13.33;9.07;;;;;;;15.69;90.25;96683.84;4988575;28;20627;-67
2023/05/18 06:23:23;;;;;;;16.37;9.80;;;;;;;15.66;89.46;96686.72;5005827;28;20191;-68
2023/05/18 06:26:13;;;;;;;12.13;8.07;;;;;;;15.80;88.42;96691.78;5005143;28;20258;-77
2023/05/18 06:29:04;;;;;;;9.60;7.70;;;;;;;15.69;89.05;96692.53;4988999;28;20300;-74
2023/05/18 06:31:52;;;;;;;8.97;6.67;;;;;;;15.74;88.62;96690.44;5007218;28;20222;-74
2023/05/18 06:34:23;;;;;;;10.47;7.80;;;;;;;15.77;88.07;96691.97;5004254;28;20670;-67
2023/05/18 06:36:52;;;;;;;12.37;7.63;;;;;;;16.04;87.81;96705.66;5005518;28;20185;-67
2023/05/18 06:39:19;;;;;;;13.20;7.80;;;;;;;15.96;87.07;96697.53;5003891;28;20301;-68
2023/05/18 06:41:46;;;;;;;11.77;8.07;;;;;;;16.01;87.80;96703.28;5005678;28;20620;-70
2023/05/18 06:44:20;;;;;;;10.20;7.67;;;;;;;16.09;87.57;96714.81;5004342;28;20629;-67
2023/05/18 06:47:09;;;;;;;10.67;7.80;;;;;;;16.14;87.89;96699.66;5004716;28;20183;-71
2023/05/18 06:49:38;;;;;;;17.00;9.20;;;;;;;16.30;86.41;96708.03;5005507;28;20242;-71
2023/05/18 06:52:07;;;;;;;16.67;8.10;;;;;;;16.38;86.46;96711.88;5003801;28;20196;-70
2023/05/18 06:54:37;;;;;;;13.23;8.43;;;;;;;16.22;87.02;96715.59;5006750;28;20224;-71
2023/05/18 06:57:05;;;;;;;14.20;8.40;;;;;;;16.26;86.61;96717.03;5004174;28;20611;-74
2023/05/18 06:59:33;;;;;;;19.00;8.40;;;;;;;16.37;86.40;96712.78;5005211;28;20250;-73
2023/05/18 07:02:00;;;;;;;17.37;10.10;;;;;;;16.34;86.58;96720.88;5006359;28;20212;-77
2023/05/18 07:04:30;;;;;;;16.47;8.97;;;;;;;16.44;87.13;96724.47;5004315;28;20593;-75
2023/05/18 07:06:58;;;;;;;18.03;8.80;;;;;;;16.40;87.17;96733.50;5006814;28;20649;-71
2023/05/18 07:09:25;;;;;;;18.80;9.77;;;;;;;16.34;86.44;96729.56;5006647;28;20601;-76
2023/05/18 07:11:52;;;;;;;22.00;9.60;;;;;;;16.38;86.58;96732.78;5010436;28;20195;-75
2023/05/18 07:14:19;;;;;;;12.40;8.60;;;;;;;16.55;85.87;96733.22;5007186;28;20222;-78
2023/05/18 07:16:46;;;;;;;17.40;10.37;;;;;;;16.50;86.01;96744.97;5009971;28;20196;-69
2023/05/18 07:19:13;;;;;;;20.17;10.60;;;;;;;16.58;85.74;96740.00;5009132;28;20278;-76
2023/05/18 07:21:41;;;;;;;12.83;7.80;;;;;;;16.55;84.68;96738.44;5009523;28;20191;-74
2023/05/18 07:24:09;;;;;;;10.23;7.30;;;;;;;16.53;83.66;96753.41;5009342;28;20203;-75
2023/05/18 07:26:36;;;;;;;14.00;7.53;;;;;;;16.44;82.94;96754.06;5008012;28;20242;-70
2023/05/18 07:29:03;;;;;;;9.17;6.77;;;;;;;16.24;83.46;96750.28;4992057;28;20223;-73
2023/05/18 07:31:31;;;;;;;11.40;7.97;;;;;;;16.30;84.02;96749.00;5006654;28;20194;-76
2023/05/18 07:33:58;;;;;;;19.70;8.33;;;;;;;16.42;83.71;96752.50;5009441;28;20578;-71
2023/05/18 07:36:27;;;;;;;27.20;9.00;;;;;;;16.54;82.86;96754.25;4991240;28;20207;-76
2023/05/18 07:38:55;;;;;;;19.80;9.20;;;;;;;16.63;81.62;96750.97;5023893;28;20195;-76
2023/05/18 07:41:23;;;;;;;22.93;9.57;;;;;;;16.78;80.71;96745.41;5008105;28;20215;-78
2023/05/18 07:43:51;;;;;;;24.87;9.67;;;;;;;16.74;80.11;96753.59;5007622;28;20225;-70
2023/05/18 07:46:18;;;;;;;15.07;6.93;;;;;;;16.84;79.67;96754.56;5009365;28;20191;-69
2023/05/18 07:48:48;;;;;;;10.77;6.67;;;;;;;16.84;77.52;96750.19;5006275;28;20318;-76
2023/05/18 07:51:15;;;;;;;22.87;8.40;;;;;;;17.07;75.96;96772.84;5008032;28;20330;-71
2023/05/18 07:53:44;;;;;;;17.53;6.70;;;;;;;17.31;74.74;96779.78;5007688;28;20269;-70
2023/05/18 07:56:12;;;;;;;20.20;6.67;;;;;;;17.17;75.17;96782.59;5008605;28;20253;-72
2023/05/18 07:58:39;;;;;;;13.30;5.93;;;;;;;17.30;73.85;96783.31;5007715;28;20214;-76
2023/05/18 08:01:06;;;;;;;15.97;7.10;;;;;;;17.35;72.00;96775.97;5007872;28;20288;-73
2023/05/18 08:03:33;;;;;;;12.83;6.40;;;;;;;17.45;71.27;96779.53;5009229;28;20231;-71
2023/05/18 08:06:01;;;;;;;10.33;5.67;;;;;;;17.40;73.24;96798.22;5007279;28;20693;-75
2023/05/18 08:08:28;;;;;;;13.40;7.30;;;;;;;17.47;73.35;96794.19;5008632;28;20225;-71
2023/05/18 08:10:56;;;;;;;9.37;5.97;;;;;;;17.43;73.07;96800.63;5022428;28;20200;-70
2023/05/18 08:13:23;;;;;;;19.03;7.07;;;;;;;17.59;70.79;96803.75;5023976;28;20196;-77
2023/05/18 08:15:50;;;;;;;7.87;4.90;;;;;;;17.04;68.78;96811.50;4988797;28;20189;-72
2023/05/18 08:18:36;;;;;;;7.50;4.13;;;;;;;16.88;65.90;96816.16;4985711;28;20196;-76
2023/05/18 08:21:06;;;;;;;3.80;2.80;;;;;;;16.73;63.25;96817.31;4987614;28;20327;-70
2023/05/18 08:23:37;;;;;;;7.67;3.30;;;;;;;16.92;64.62;96812.38;4987289;28;20192;-70
2023/05/18 08:26:05;;;;;;;9.47;4.23;;;;;;;17.00;66.12;96813.47;5003822;28;20286;-74
2023/05/18 08:28:32;;;;;;;5.53;3.43;;;;;;;16.79;65.25;96812.47;4987970;28;20218;-77
2023/05/18 08:30:59;;;;;;;8.97;3.13;;;;;;;16.91;65.15;96823.81;4987560;28;20270;-75
2023/05/18 08:33:27;;;;;;;5.17;2.70;;;;;;;16.87;62.07;96830.22;4955521;28;20227;-74
2023/05/18 08:35:54;;;;;;;7.63;4.63;;;;;;;16.98;61.85;96833.69;5002826;28;20223;-77
2023/05/18 08:38:21;;;;;;;4.73;2.90;;;;;;;16.81;64.25;96839.34;4989103;28;20806;-70
2023/05/18 08:41:07;;;;;;;2.80;2.20;;;;;;;16.67;65.08;96838.69;5006557;28;20217;-72
2023/05/18 08:43:39;;;;;;;5.57;2.77;;;;;;;16.67;64.96;96844.75;5008409;28;20748;-66
2023/05/18 08:46:28;;;;;;;12.90;3.30;;;;;;;16.93;65.91;96842.84;5006241;28;20193;-75
2023/05/18 08:48:58;;;;;;;4.40;2.37;;;;;;;16.60;61.34;96842.69;5006798;28;20199;-73
2023/05/18 08:51:28;;;;;;;4.13;3.73;;;;;;;16.79;62.65;96850.88;5008417;28;20242;-75
2023/05/18 08:53:55;;;;;;;4.00;2.43;;;;;;;16.56;63.87;96859.53;5021168;28;20211;-76
2023/05/18 08:56:25;;;;;;;3.17;2.37;;;;;;;16.42;65.16;96862.28;5008161;28;20202;-70
2023/05/18 08:58:55;;;;;;;3.53;2.30;;;;;;;16.44;64.97;96857.78;5005378;28;20226;-76
2023/05/18 09:01:28;;;;;;;4.93;2.43;;;;;;;16.40;63.93;96875.47;5007567;28;20201;-77
2023/05/18 09:03:57;;;;;;;2.93;1.97;;;;;;;16.25;63.74;96860.88;5006281;28;20277;-68
2023/05/18 09:06:25;;;;;;;2.57;1.83;;;;;;;16.09;63.56;96875.97;4972518;28;20804;-67
2023/05/18 09:08:53;;;;;;;6.20;2.37;;;;;;;16.17;65.77;96868.44;5007587;28;20187;-68
2023/05/18 09:11:21;;;;;;;5.63;2.23;;;;;;;16.08;67.31;96863.84;5006263;28;20582;-70
2023/05/18 09:13:49;;;;;;;2.93;1.90;;;;;;;16.11;68.63;96874.94;5007975;28;20198;-69
2023/05/18 09:16:18;;;;;;;2.10;1.90;;;;;;;16.03;69.57;96877.22;4988793;28;20701;-74
2023/05/18 09:18:45;;;;;;;2.70;1.83;;;;;;;16.05;70.33;96866.69;5005597;28;20183;-71
2023/05/18 09:21:13;;;;;;;2.63;1.90;;;;;;;16.10;68.08;96868.03;5007086;28;20226;-77
2023/05/18 09:23:40;;;;;;;2.23;1.90;;;;;;;16.19;69.11;96875.22;5004513;28;20195;-75
2023/05/18 09:26:12;;;;;;;4.80;2.27;;;;;;;16.30;66.85;96854.38;5007551;28;20348;-66
2023/05/18 09:28:41;;;;;;;2.70;1.97;;;;;;;16.48;66.74;96867.91;4988341;28;20226;-72
2023/05/18 09:31:15;;;;;;;2.97;1.90;;;;;;;16.37;65.94;96864.38;5006614;28;20215;-66
2023/05/18 09:33:44;;;;;;;3.80;2.07;;;;;;;16.34;68.26;96877.69;5006759;28;20191;-69
2023/05/18 09:36:14;;;;;;;2.80;2.03;;;;;;;16.35;66.87;96867.13;5005339;28;20195;-69
2023/05/18 09:38:44;;;;;;;3.43;2.10;;;;;;;16.44;66.04;96873.47;5007404;28;20187;-70
2023/05/18 09:41:15;;;;;;;4.33;2.00;;;;;;;16.35;65.70;96880.19;5004111;28;20208;-70
2023/05/18 09:43:43;;;;;;;2.60;2.13;;;;;;;16.54;68.99;96880.59;5022382;28;20219;-77
2023/05/18 09:46:11;;;;;;;5.63;3.00;;;;;;;16.63;70.28;96871.25;5004307;28;20745;-71
2023/05/18 09:48:47;;;;;;;4.00;2.73;;;;;;;16.80;70.39;96874.28;5007116;28;20223;-73
2023/05/18 09:51:17;;;;;;;4.20;3.20;;;;;;;16.64;73.67;96862.44;5006526;28;20243;-69
2023/05/18 09:53:54;;;;;;;3.40;2.50;;;;;;;16.37;71.31;96872.22;5004912;28;20241;-73
2023/05/18 09:56:25;;;;;;;7.37;3.57;;;;;;;16.35;72.09;96879.34;5007460;28;20196;-70
2023/05/18 09:58:54;;;;;;;4.37;2.20;;;;;;;16.26;70.80;96867.75;5005437;28;20651;-72
2023/05/18 10:01:21;;;;;;;5.53;2.70;;;;;;;16.05;72.73;96896.22;5007114;28;20590;-72
2023/05/18 10:03:52;;;;;;;2.90;2.37;;;;;;;16.14;73.42;96879.09;5004616;28;20202;-66
2023/05/18 10:06:26;;;;;;;7.43;3.70;;;;;;;16.36;76.02;96883.66;5007085;28;20199;-77
2023/05/18 10:08:56;;;;;;;4.47;3.80;;;;;;;16.44;75.20;96886.53;5006954;28;20198;-77
2023/05/18 10:11:23;;;;;;;6.80;3.27;;;;;;;16.67;75.20;96878.72;5004215;28;20759;-70
2023/05/18 10:13:56;;;;;;;5.93;3.23;;;;;;;16.81;75.82;96893.44;5006930;28;20294;-71
2023/05/18 10:16:24;;;;;;;9.43;4.30;;;;;;;16.88;76.18;96887.63;5005353;28;20257;-71
2023/05/18 10:18:53;;;;;;;4.80;3.50;;;;;;;16.83;75.45;96891.53;5021882;28;20949;-75
2023/05/18 10:21:23;;;;;;;5.27;3.73;;;;;;;16.82;76.24;96897.72;5005892;28;20235;-73
2023/05/18 10:23:51;;;;;;;5.30;3.80;;;;;;;16.63;77.06;96887.75;4989417;28;20616;-72
2023/05/18 10:26:21;;;;;;;6.87;3.70;;;;;;;16.74;76.68;96897.44;5006724;28;20187;-68
2023/05/18 10:28:49;;;;;;;6.13;4.83;;;;;;;16.78;77.68;96912.78;5005532;28;20202;-78
2023/05/18 10:31:16;;;;;;;7.53;4.87;;;;;;;16.64;77.20;96899.03;5006853;28;20285;-70
2023/05/18 10:33:44;;;;;;;6.00;4.33;;;;;;;16.70;77.48;96909.06;5005437;28;20295;-72
2023/05/18 10:36:12;;;;;;;6.53;4.33;;;;;;;16.63;77.01;96886.94;5005624;28;20249;-73
2023/05/18 10:38:44;;;;;;;6.57;4.50;;;;;;;16.73;76.96;96907.06;5005688;28;20238;-74
2023/05/18 10:41:13;;;;;;;6.40;4.90;;;;;;;16.69;77.35;96913.44;5006305;28;20203;-67
2023/05/18 10:43:40;;;;;;;5.07;4.00;;;;;;;16.62;75.77;96909.63;5010283;28;20622;-72
2023/05/18 10:46:08;;;;;;;6.40;4.30;;;;;;;16.57;76.65;96897.84;5009142;28;20725;-70
2023/05/18 10:48:41;;;;;;;6.07;4.07;;;;;;;16.52;76.15;96900.78;5009414;28;20265;-78
2023/05/18 10:51:09;;;;;;;6.17;4.47;;;;;;;16.66;77.80;96907.63;5009055;28;20223;-72
2023/05/18 10:53:38;;;;;;;5.90;4.57;;;;;;;16.75;77.49;96907.81;5009131;28;20289;-74
2023/05/18 10:56:06;;;;;;;5.80;4.17;;;;;;;16.56;74.85;96901.38;5009435;28;20218;-77
2023/05/18 10:58:35;;;;;;;7.53;4.30;;;;;;;16.53;74.18;96907.66;5010018;28;20194;-72
2023/05/18 11:01:08;;;;;;;5.20;4.10;;;;;;;16.67;74.04;96898.84;5010133;28;20257;-74
2023/05/18 11:03:39;;;;;;;4.90;3.73;;;;;;;16.71;74.47;96895.06;5008991;28;20222;-75
2023/05/18 11:06:09;;;;;;;6.93;3.80;;;;;;;16.92;74.64;96914.41;5009050;28;20227;-72
2023/05/18 11:08:46;;;;;;;7.47;3.73;;;;;;;16.74;75.54;96905.28;5008501;28;20191;-70
2023/05/18 11:11:14;;;;;;;6.10;3.10;;;;;;;16.79;75.79;96914.47;5008928;28;20696;-68
2023/05/18 11:13:47;;;;;;;4.57;3.00;;;;;;;16.67;75.55;96911.91;5009519;28;20314;-71
2023/05/18 11:16:16;;;;;;;4.20;3.40;;;;;;;16.73;76.09;96908.84;5008874;28;20196;-71
2023/05/18 11:18:45;;;;;;;4.20;2.90;;;;;;;16.69;76.46;96917.88;5009858;28;20206;-70
2023/05/18 11:21:41;;;;;;;8.37;4.20;;;;;;;16.74;76.53;96920.97;5008594;28;20239;-71
2023/05/18 11:24:31;;;;;;;3.47;2.77;;;;;;;16.53;77.27;96915.50;4992277;28;20204;-74
2023/05/18 11:27:02;;;;;;;6.27;2.80;;;;;;;16.69;77.92;96921.28;5009854;28;20199;-72
2023/05/18 11:29:43;;;;;;;3.27;2.63;;;;;;;16.62;77.59;96914.84;5008140;28;20690;-73
2023/05/18 11:32:26;;;;;;;3.63;2.83;;;;;;;16.59;76.85;96922.09;5009599;28;20204;-72
2023/05/18 11:34:57;;;;;;;2.53;1.70;;;;;;;16.61;66.31;96920.19;5008645;28;20229;-77
2023/05/18 11:38:05;;;;;;;2.27;1.80;;;;;;;16.85;67.20;96926.28;5008386;28;20226;-73
2023/05/18 11:40:45;;;;;;;7.33;4.00;;;;;;;17.04;67.99;96937.06;5009909;28;20198;-78
2023/05/18 11:43:23;;;;;;;4.47;2.50;;;;;;;17.06;66.55;96943.84;5008396;28;20226;-78
2023/05/18 11:45:54;;;;;;;4.47;2.40;;;;;;;16.92;65.85;96951.88;5009319;28;20228;-71
2023/05/18 11:48:27;;;;;;;2.60;1.73;;;;;;;16.96;65.32;96942.84;5008945;28;20199;-70
2023/05/18 11:50:55;;;;;;;3.83;2.37;;;;;;;16.90;65.59;96960.75;5008199;28;20265;-71
2023/05/18 11:53:23;;;;;;;4.00;2.00;;;;;;;16.91;64.79;96954.59;5008741;28;20259;-68
2023/05/18 11:55:53;;;;;;;2.73;1.70;;;;;;;16.83;63.41;96956.94;5007858;28;20286;-74
2023/05/18 11:58:23;;;;;;;2.87;1.60;;;;;;;16.62;63.92;96963.69;5009346;28;20257;-74
2023/05/18 12:00:51;;;;;;;3.37;2.83;;;;;;;16.30;67.64;96963.28;5006606;28;20704;-71
2023/05/18 12:03:23;;;;;;;4.23;3.37;;;;;;;16.17;69.65;96931.13;5009109;28;20675;-76
2023/05/18 12:05:51;;;;;;;3.17;2.27;;;;;;;16.24;69.80;96959.34;5008616;28;20284;-71
2023/05/18 12:08:19;;;;;;;3.50;3.10;;;;;;;16.34;68.13;96948.25;5006938;28;20195;-75
2023/05/18 12:10:48;;;;;;;2.93;2.70;;;;;;;16.56;69.01;96953.66;5008929;28;20673;-69
2023/05/18 12:13:16;;;;;;;3.77;2.83;;;;;;;16.89;68.89;96965.19;5007188;28;20226;-69
2023/05/18 12:15:43;;;;;;;3.13;2.73;;;;;;;16.93;69.95;96965.78;5007247;28;20197;-70
2023/05/18 12:18:11;;;;;;;8.67;5.87;;;;;;;16.93;67.30;96957.94;5007703;28;20210;-71
2023/05/18 12:20:39;;;;;;;4.37;2.90;;;;;;;16.84;66.21;96969.91;5008327;28;20229;-73
2023/05/18 12:23:06;;;;;;;2.47;2.27;;;;;;;16.99;67.05;96981.03;5007082;28;20683;-78
2023/05/18 12:25:35;;;;;;;2.50;1.93;;;;;;;16.87;65.06;96969.69;5006576;28;20203;-76
2023/05/18 12:28:03;;;;;;;2.43;1.87;;;;;;;16.56;66.93;96974.59;5008831;28;20199;-72
2023/05/18 12:30:33;;;;;;;3.13;2.00;;;;;;;16.64;67.85;96960.03;4997407;28;20227;-71
2023/05/18 12:33:02;;;;;;;5.63;2.53;;;;;;;16.79;68.19;96982.50;4988980;28;20196;-72
2023/05/18 12:35:30;;;;;;;2.10;1.90;;;;;;;16.70;69.10;96977.06;4986510;28;20200;-67
2023/05/18 12:37:59;;;;;;;2.93;2.50;;;;;;;16.61;70.65;96962.03;4971859;28;20193;-67
2023/05/18 12:40:36;;;;;;;4.27;2.97;;;;;;;16.67;72.21;96978.09;4988248;28;20683;-70
2023/05/18 12:43:03;;;;;;;3.27;2.80;;;;;;;16.60;74.51;96979.50;4987802;28;20196;-67
2023/05/18 12:45:32;;;;;;;4.17;2.50;;;;;;;16.55;75.94;96975.53;4989026;28;20240;-69
2023/05/18 12:48:08;;;;;;;3.70;2.50;;;;;;;16.58;77.84;96973.53;4987579;28;20198;-72
2023/05/18 12:50:37;;;;;;;7.27;3.33;;;;;;;16.62;77.79;96974.16;4987541;28;20741;-71
2023/05/18 12:53:04;;;;;;;3.37;3.07;;;;;;;16.64;76.95;96980.94;4987211;28;20235;-68